createdAt,value
2023-04-10T00:00:39.478Z,98348.47
2023-04-10T00:03:07.957Z,98345.84
2023-04-10T00:05:37.813Z,98342.34
2023-04-10T00:08:06.359Z,98346.69
2023-04-10T00:10:34.527Z,98345.81
2023-04-10T00:13:03.786Z,98342.34
2023-04-10T00:15:32.072Z,98325.84
2023-04-10T00:18:00.528Z,98327.63
2023-04-10T00:20:28.871Z,98339.78
2023-04-10T00:22:58.533Z,98287.72
2023-04-10T00:25:26.795Z,98339.81
2023-04-10T00:27:55.397Z,98302.41
2023-04-10T00:30:23.633Z,98337.16
2023-04-10T00:32:51.871Z,98248.63
2023-04-10T00:35:20.207Z,98308.53
2023-04-10T00:37:50.361Z,98335.47
2023-04-10T00:40:19.953Z,98333.75
2023-04-10T00:42:48.213Z,98331.94
2023-04-10T00:45:16.458Z,98341.56
2023-04-10T00:47:44.778Z,98312.06
2023-04-10T00:50:13.149Z,98325.00
2023-04-10T00:52:41.506Z,98338.84
2023-04-10T00:55:11.452Z,98337.06
2023-04-10T00:57:45.424Z,98334.44
2023-04-10T01:00:14.955Z,98337.94
2023-04-10T01:02:43.256Z,98330.97
2023-04-10T01:05:13.333Z,98338.78
2023-04-10T01:07:59.953Z,98309.31
2023-04-10T01:10:35.873Z,98329.25
2023-04-10T01:13:17.100Z,98333.63
2023-04-10T01:15:50.681Z,98325.00
2023-04-10T01:18:26.211Z,98325.00
2023-04-10T01:20:55.049Z,98325.00
2023-04-10T01:24:08.756Z,98320.69
2023-04-10T01:26:54.315Z,98210.41
2023-04-10T01:29:29.574Z,98342.31
2023-04-10T01:32:02.121Z,98325.00
2023-04-10T01:34:36.943Z,98324.16
2023-04-10T01:37:09.870Z,98323.31
2023-04-10T01:39:41.113Z,98290.25
2023-04-10T01:42:11.940Z,98293.69
2023-04-10T01:44:45.060Z,98315.38
2023-04-10T01:47:16.479Z,98323.09
2023-04-10T01:49:47.872Z,98119.09
2023-04-10T01:52:17.117Z,98311.78
2023-04-10T01:54:48.534Z,98316.16
2023-04-10T01:57:17.428Z,98310.94
2023-04-10T01:59:47.077Z,98315.25
2023-04-10T02:02:15.370Z,98311.75
2023-04-10T02:04:43.630Z,98311.72
2023-04-10T02:07:18.065Z,98309.91
2023-04-10T02:09:52.005Z,98308.91
2023-04-10T02:12:27.698Z,98309.81
2023-04-10T02:15:01.450Z,98320.09
2023-04-10T02:17:31.531Z,98278.38
2023-04-10T02:20:00.676Z,98320.84
2023-04-10T02:22:29.743Z,98319.06
2023-04-10T02:24:58.897Z,98312.94
2023-04-10T02:27:31.924Z,98320.72
2023-04-10T02:30:02.618Z,98179.09
2023-04-10T02:32:31.346Z,98300.75
2023-04-10T02:34:59.618Z,98314.75
2023-04-10T02:37:27.874Z,98308.59
2023-04-10T02:39:56.258Z,98290.22
2023-04-10T02:42:24.614Z,98295.25
2023-04-10T02:44:52.742Z,98310.00
2023-04-10T02:47:22.410Z,98321.28
2023-04-10T02:49:50.765Z,98315.19
2023-04-10T02:52:18.985Z,98201.34
2023-04-10T02:54:47.601Z,98302.03
2023-04-10T02:57:15.772Z,98216.84
2023-04-10T02:59:44.770Z,98321.88
2023-04-10T03:02:12.994Z,98289.78
2023-04-10T03:04:43.087Z,98307.19
2023-04-10T03:07:11.481Z,98305.41
2023-04-10T03:09:39.695Z,98308.00
2023-04-10T03:12:07.892Z,98151.47
2023-04-10T03:14:36.062Z,98312.28
2023-04-10T03:17:04.250Z,98217.41
2023-04-10T03:19:32.980Z,98313.09
2023-04-10T03:22:02.563Z,98291.31
2023-04-10T03:24:30.781Z,98314.03
2023-04-10T03:26:58.951Z,98225.44
2023-04-10T03:29:27.202Z,98314.06
2023-04-10T03:31:55.484Z,98316.47
2023-04-10T03:34:23.761Z,98322.44
2023-04-10T03:36:52.012Z,98324.16
2023-04-10T03:39:22.147Z,98327.53
2023-04-10T03:41:50.398Z,98323.16
2023-04-10T03:44:19.305Z,98325.72
2023-04-10T03:46:47.550Z,98320.50
2023-04-10T03:49:16.463Z,98317.03
2023-04-10T03:51:44.641Z,98291.75
2023-04-10T03:54:12.854Z,98297.88
2023-04-10T03:56:42.511Z,98314.59
2023-04-10T03:59:10.680Z,98311.09
2023-04-10T04:01:39.659Z,98317.97
2023-04-10T04:04:08.201Z,98318.59
2023-04-10T04:06:36.657Z,98234.06
2023-04-10T04:09:05.032Z,98303.50
2023-04-10T04:11:33.180Z,98311.25
2023-04-10T04:14:02.850Z,98327.75
2023-04-10T04:16:31.257Z,98332.13
2023-04-10T04:18:59.586Z,98317.53
2023-04-10T04:21:27.756Z,98304.34
2023-04-10T04:23:56.018Z,98334.72
2023-04-10T04:26:25.182Z,98332.91
2023-04-10T04:28:53.390Z,98326.94
2023-04-10T04:31:24.407Z,98317.25
2023-04-10T04:33:52.846Z,98338.16
2023-04-10T04:36:21.122Z,98331.34
2023-04-10T04:38:49.293Z,98302.63
2023-04-10T04:41:18.787Z,98328.94
2023-04-10T04:43:49.557Z,98334.13
2023-04-10T04:46:17.802Z,98332.47
2023-04-10T04:48:47.383Z,98332.56
2023-04-10T04:51:15.543Z,98333.59
2023-04-10T04:53:43.710Z,98338.88
2023-04-10T04:56:11.827Z,98332.78
2023-04-10T04:58:39.953Z,98308.41
2023-04-10T05:01:08.901Z,98325.84
2023-04-10T05:03:37.323Z,98339.09
2023-04-10T05:06:07.791Z,98341.81
2023-04-10T05:08:35.909Z,98347.16
2023-04-10T05:11:04.000Z,98338.50
2023-04-10T05:13:32.158Z,98338.38
2023-04-10T05:16:00.462Z,98195.00
2023-04-10T05:18:29.056Z,98341.09
2023-04-10T05:20:57.240Z,98343.75
2023-04-10T05:23:26.888Z,98331.72
2023-04-10T05:25:55.026Z,98347.59
2023-04-10T05:28:23.464Z,98325.13
2023-04-10T05:30:51.670Z,98357.44
2023-04-10T05:33:19.881Z,98353.22
2023-04-10T05:35:48.280Z,98311.69
2023-04-10T05:38:16.596Z,98268.34
2023-04-10T05:40:48.804Z,98359.63
2023-04-10T05:43:17.143Z,98356.25
2023-04-10T05:45:45.922Z,98353.75
2023-04-10T05:48:14.210Z,98317.28
2023-04-10T05:50:42.415Z,98354.72
2023-04-10T05:53:16.062Z,98353.91
2023-04-10T05:55:44.347Z,98361.72
2023-04-10T05:58:13.982Z,98358.28
2023-04-10T06:00:42.200Z,98361.75
2023-04-10T06:03:11.542Z,98343.53
2023-04-10T06:05:41.424Z,98365.25
2023-04-10T06:08:09.764Z,98347.88
2023-04-10T06:10:38.167Z,98359.13
2023-04-10T06:13:07.195Z,98352.16
2023-04-10T06:15:38.464Z,98308.78
2023-04-10T06:18:06.916Z,98353.00
2023-04-10T06:20:35.164Z,98355.53
2023-04-10T06:23:04.088Z,98358.09
2023-04-10T06:25:32.298Z,98351.09
2023-04-10T06:28:00.630Z,98361.44
2023-04-10T06:30:28.936Z,98357.91
2023-04-10T06:32:58.693Z,98333.47
2023-04-10T06:35:27.491Z,98310.88
2023-04-10T06:37:55.669Z,98360.22
2023-04-10T06:40:23.928Z,98354.06
2023-04-10T06:42:52.075Z,98353.88
2023-04-10T06:45:21.145Z,98351.22
2023-04-10T06:47:49.498Z,98345.16
2023-04-10T06:50:19.324Z,98353.94
2023-04-10T06:52:47.982Z,98300.09
2023-04-10T06:55:16.114Z,98333.84
2023-04-10T06:57:44.349Z,98330.31
2023-04-10T07:00:13.258Z,98336.22
2023-04-10T07:02:41.619Z,98351.66
2023-04-10T07:05:10.735Z,98340.19
2023-04-10T07:07:40.476Z,98263.91
2023-04-10T07:10:09.928Z,98246.47
2023-04-10T07:12:38.176Z,98330.84
2023-04-10T07:15:08.290Z,98339.44
2023-04-10T07:17:36.762Z,98341.16
2023-04-10T07:20:06.135Z,98344.69
2023-04-10T07:22:34.360Z,98341.91
2023-04-10T07:25:04.146Z,98330.53
2023-04-10T07:27:32.365Z,98303.41
2023-04-10T07:30:00.666Z,98335.28
2023-04-10T07:32:29.141Z,98321.34
2023-04-10T07:34:57.454Z,98343.69
2023-04-10T07:37:25.928Z,98314.09
2023-04-10T07:39:54.150Z,98335.66
2023-04-10T07:42:23.920Z,98325.97
2023-04-10T07:44:52.161Z,98326.63
2023-04-10T07:47:20.467Z,98334.22
2023-04-10T07:49:49.907Z,98280.41
2023-04-10T07:52:18.238Z,98336.44
2023-04-10T07:54:46.556Z,98340.94
2023-04-10T07:57:14.813Z,98334.84
2023-04-10T07:59:44.428Z,98339.31
2023-04-10T08:02:13.018Z,98316.00
2023-04-10T08:04:42.981Z,98336.84
2023-04-10T08:07:11.412Z,98339.38
2023-04-10T08:09:39.815Z,98334.91
2023-04-10T08:12:08.207Z,98343.94
2023-04-10T08:14:36.458Z,98339.75
2023-04-10T08:17:06.356Z,98335.41
2023-04-10T08:19:35.097Z,98341.31
2023-04-10T08:22:04.284Z,98341.25
2023-04-10T08:24:32.510Z,98326.38
2023-04-10T08:27:00.777Z,98333.56
2023-04-10T08:29:29.056Z,98297.69
2023-04-10T08:32:00.713Z,98303.47
2023-04-10T08:34:30.435Z,98326.44
2023-04-10T08:36:58.968Z,98320.19
2023-04-10T08:39:27.279Z,98326.97
2023-04-10T08:41:56.115Z,98327.69
2023-04-10T08:44:24.452Z,98329.25
2023-04-10T08:46:53.886Z,98325.50
2023-04-10T08:49:30.545Z,98315.38
2023-04-10T08:52:01.644Z,98289.47
2023-04-10T08:54:31.070Z,98294.72
2023-04-10T08:57:01.466Z,98164.81
2023-04-10T08:59:30.246Z,98297.59
2023-04-10T09:01:58.850Z,98278.50
2023-04-10T09:04:27.776Z,98293.25
2023-04-10T09:06:56.275Z,98233.19
2023-04-10T09:09:25.885Z,98285.44
2023-04-10T09:12:02.734Z,98294.41
2023-04-10T09:14:33.123Z,98311.13
2023-04-10T09:17:16.584Z,98307.06
2023-04-10T09:19:45.662Z,98258.41
2023-04-10T09:22:14.415Z,98252.47
2023-04-10T09:24:45.428Z,98190.69
2023-04-10T09:27:35.547Z,98286.19
2023-04-10T09:30:04.686Z,98299.69
2023-04-10T09:32:42.105Z,98300.16
2023-04-10T09:35:11.951Z,98274.09
2023-04-10T09:37:41.702Z,98302.25
2023-04-10T09:40:22.016Z,98290.06
2023-04-10T09:42:50.471Z,98284.75
2023-04-10T09:45:20.723Z,98291.28
2023-04-10T09:48:04.164Z,98291.91
2023-04-10T09:50:40.347Z,98286.19
2023-04-10T09:53:09.292Z,98284.09
2023-04-10T09:55:39.554Z,98279.53
2023-04-10T09:58:08.697Z,98272.72
2023-04-10T10:00:44.630Z,98268.78
2023-04-10T10:03:14.945Z,98274.44
2023-04-10T10:05:45.576Z,98136.63
2023-04-10T10:08:15.240Z,98264.81
2023-04-10T10:10:48.399Z,98263.88
2023-04-10T10:13:19.972Z,98215.56
2023-04-10T10:15:56.265Z,98236.25
2023-04-10T10:18:33.355Z,98242.13
2023-04-10T10:21:02.843Z,98247.22
2023-04-10T10:23:33.338Z,98241.59
2023-04-10T10:26:06.465Z,98255.53
2023-04-10T10:28:35.467Z,98243.47
2023-04-10T10:31:05.270Z,98255.81
2023-04-10T10:33:36.841Z,98249.72
2023-04-10T10:36:05.922Z,98205.63
2023-04-10T10:38:34.911Z,98246.97
2023-04-10T10:41:14.092Z,98148.31
2023-04-10T10:43:52.080Z,98230.84
2023-04-10T10:46:31.192Z,98237.25
2023-04-10T10:48:59.582Z,98236.34
2023-04-10T10:51:46.814Z,98223.56
2023-04-10T10:54:30.015Z,98239.22
2023-04-10T10:56:59.793Z,98184.56
2023-04-10T10:59:55.746Z,98223.22
2023-04-10T11:02:25.297Z,98217.06
2023-04-10T11:04:53.744Z,98215.44
2023-04-10T11:07:21.975Z,98211.41
2023-04-10T11:09:52.542Z,98204.28
2023-04-10T11:12:24.482Z,98199.78
2023-04-10T11:15:00.805Z,98107.13
2023-04-10T11:17:51.968Z,98204.72
2023-04-10T11:20:22.348Z,98199.53
2023-04-10T11:23:20.569Z,98171.66
2023-04-10T11:25:50.743Z,98102.59
2023-04-10T11:28:40.139Z,98188.72
2023-04-10T11:31:23.146Z,98184.47
2023-04-10T11:34:02.211Z,98122.28
2023-04-10T11:36:30.999Z,98110.84
2023-04-10T11:39:00.237Z,98178.47
2023-04-10T11:41:30.754Z,98165.41
2023-04-10T11:44:01.145Z,98164.22
2023-04-10T11:46:29.871Z,98140.06
2023-04-10T11:48:59.856Z,98164.28
2023-04-10T11:51:28.896Z,98059.75
2023-04-10T11:54:08.716Z,98152.19
2023-04-10T11:56:37.797Z,98151.06
2023-04-10T11:59:10.819Z,98153.50
2023-04-10T12:01:42.457Z,98150.63
2023-04-10T12:04:18.500Z,98148.31
2023-04-10T12:06:47.650Z,98143.84
2023-04-10T12:09:17.363Z,98129.25
2023-04-10T12:11:52.076Z,98073.03
2023-04-10T12:14:22.931Z,98062.56
2023-04-10T12:16:52.994Z,98133.06
2023-04-10T12:19:21.854Z,98129.00
2023-04-10T12:21:50.365Z,98123.25
2023-04-10T12:24:42.784Z,98095.38
2023-04-10T12:27:16.894Z,98112.22
2023-04-10T12:29:46.855Z,98113.59
2023-04-10T12:32:15.673Z,98109.16
2023-04-10T12:34:44.182Z,98092.09
2023-04-10T12:37:12.456Z,98099.81
2023-04-10T12:39:40.701Z,98105.78
2023-04-10T12:42:15.940Z,98095.00
2023-04-10T12:44:57.172Z,98089.59
2023-04-10T12:47:25.984Z,98073.56
2023-04-10T12:50:11.425Z,98064.06
2023-04-10T12:52:41.786Z,98073.19
2023-04-10T12:55:15.256Z,98070.13
2023-04-10T12:57:44.824Z,98061.84
2023-04-10T13:00:17.185Z,98066.94
2023-04-10T13:02:46.080Z,98063.66
2023-04-10T13:05:14.492Z,98055.13
2023-04-10T13:07:43.094Z,98061.69
2023-04-10T13:10:11.758Z,97975.59
2023-04-10T13:12:42.151Z,98060.59
2023-04-10T13:15:11.001Z,98038.56
2023-04-10T13:17:41.895Z,98053.06
2023-04-10T13:20:11.286Z,98049.53
2023-04-10T13:22:39.568Z,98051.81
2023-04-10T13:25:08.526Z,98042.72
2023-04-10T13:27:36.780Z,98038.03
2023-04-10T13:30:05.670Z,98020.13
2023-04-10T13:32:34.122Z,98030.63
2023-04-10T13:35:03.777Z,98029.59
2023-04-10T13:37:32.105Z,97935.03
2023-04-10T13:40:00.629Z,98025.00
2023-04-10T13:42:28.944Z,98021.75
2023-04-10T13:44:57.594Z,97967.97
2023-04-10T13:47:25.746Z,98020.03
2023-04-10T13:49:54.065Z,98019.13
2023-04-10T13:52:23.836Z,97906.44
2023-04-10T13:54:52.335Z,97970.84
2023-04-10T13:57:20.644Z,97973.56
2023-04-10T13:59:48.957Z,98002.97
2023-04-10T14:02:17.599Z,97962.53
2023-04-10T14:04:46.470Z,97984.66
2023-04-10T14:07:14.759Z,97998.50
2023-04-10T14:09:44.410Z,97992.91
2023-04-10T14:12:12.794Z,97951.00
2023-04-10T14:14:41.065Z,97987.81
2023-04-10T14:17:09.316Z,97982.28
2023-04-10T14:19:38.653Z,97989.75
2023-04-10T14:22:07.395Z,97978.13
2023-04-10T14:24:35.651Z,97957.22
2023-04-10T14:27:05.397Z,97972.13
2023-04-10T14:29:37.642Z,97968.53
2023-04-10T14:32:08.920Z,97965.28
2023-04-10T14:34:37.227Z,97958.22
2023-04-10T14:37:05.596Z,97959.75
2023-04-10T14:39:34.056Z,97953.94
2023-04-10T14:42:03.439Z,97888.97
2023-04-10T14:44:33.293Z,97865.63
2023-04-10T14:47:01.577Z,97943.84
2023-04-10T14:49:29.762Z,97926.31
2023-04-10T14:51:57.988Z,97942.34
2023-04-10T14:54:26.566Z,97936.34
2023-04-10T14:56:54.825Z,97910.41
2023-04-10T14:59:23.046Z,97924.09
2023-04-10T15:01:54.033Z,97917.84
2023-04-10T15:04:22.522Z,97905.78
2023-04-10T15:06:51.409Z,97911.75
2023-04-10T15:09:21.805Z,97907.53
2023-04-10T15:11:50.274Z,97898.94
2023-04-10T15:14:18.474Z,97886.84
2023-04-10T15:16:47.449Z,97881.66
2023-04-10T15:19:17.156Z,97879.00
2023-04-10T15:21:45.725Z,97875.19
2023-04-10T15:24:13.956Z,97875.84
2023-04-10T15:26:46.226Z,97878.97
2023-04-10T15:29:15.007Z,97868.28
2023-04-10T15:31:43.319Z,97858.72
2023-04-10T15:34:11.547Z,97864.47
2023-04-10T15:36:41.193Z,97848.06
2023-04-10T15:39:09.549Z,97860.09
2023-04-10T15:41:37.900Z,97856.34
2023-04-10T15:44:06.227Z,97848.31
2023-04-10T15:46:34.554Z,97861.63
2023-04-10T15:49:04.286Z,97840.97
2023-04-10T15:51:32.481Z,97846.31
2023-04-10T15:54:04.649Z,97844.50
2023-04-10T15:56:33.788Z,97756.66
2023-04-10T15:59:02.179Z,97812.09
2023-04-10T16:01:31.144Z,97819.91
2023-04-10T16:03:59.737Z,97529.47
2023-04-10T16:06:29.212Z,97842.91
2023-04-10T16:08:57.489Z,97838.16
2023-04-10T16:11:27.168Z,97747.41
2023-04-10T16:13:55.792Z,97829.56
2023-04-10T16:16:24.218Z,97827.81
2023-04-10T16:18:54.403Z,97801.47
2023-04-10T16:21:22.692Z,97819.72
2023-04-10T16:23:51.226Z,97777.44
2023-04-10T16:26:19.656Z,97826.03
2023-04-10T16:28:49.475Z,97830.84
2023-04-10T16:31:18.085Z,97820.44
2023-04-10T16:33:46.372Z,97836.50
2023-04-10T16:36:14.579Z,97818.75
2023-04-10T16:38:43.760Z,97828.63
2023-04-10T16:41:12.715Z,97782.16
2023-04-10T16:43:40.934Z,97838.81
2023-04-10T16:46:10.809Z,97842.09
2023-04-10T16:48:39.432Z,97834.56
2023-04-10T16:51:08.582Z,97839.72
2023-04-10T16:53:37.253Z,97769.88
2023-04-10T16:56:05.711Z,97782.78
2023-04-10T16:58:34.574Z,97839.22
2023-04-10T17:01:16.086Z,97839.38
2023-04-10T17:03:44.439Z,97834.31
2023-04-10T17:06:12.768Z,97785.22
2023-04-10T17:08:41.035Z,97820.06
2023-04-10T17:11:09.437Z,97844.84
2023-04-10T17:13:37.649Z,97817.78
2023-04-10T17:16:06.873Z,97839.06
2023-04-10T17:18:36.533Z,97822.41
2023-04-10T17:21:05.039Z,97839.19
2023-04-10T17:23:33.454Z,97767.66
2023-04-10T17:26:04.872Z,97820.47
2023-04-10T17:28:33.692Z,97833.94
2023-04-10T17:31:02.080Z,97838.97
2023-04-10T17:33:30.392Z,97846.13
2023-04-10T17:36:00.122Z,97842.81
2023-04-10T17:38:28.383Z,97751.22
2023-04-10T17:40:56.516Z,97840.31
2023-04-10T17:43:24.834Z,97824.22
2023-04-10T17:45:53.018Z,97789.22
2023-04-10T17:48:21.362Z,97842.84
2023-04-10T17:50:51.737Z,97845.84
2023-04-10T17:53:21.389Z,97838.25
2023-04-10T17:55:49.751Z,97853.41
2023-04-10T17:58:17.818Z,97848.28
2023-04-10T18:00:46.067Z,97846.91
2023-04-10T18:03:14.461Z,97839.25
2023-04-10T18:05:42.830Z,97859.97
2023-04-10T18:08:10.988Z,97854.38
2023-04-10T18:10:40.691Z,97855.53
2023-04-10T18:13:08.866Z,97856.53
2023-04-10T18:15:36.975Z,97851.31
2023-04-10T18:18:05.380Z,97855.84
2023-04-10T18:20:33.663Z,97857.66
2023-04-10T18:23:04.023Z,97854.22
2023-04-10T18:25:32.793Z,97854.31
2023-04-10T18:30:33.596Z,97848.41
2023-04-10T18:33:03.212Z,97828.00
2023-04-10T18:35:33.418Z,97828.75
2023-04-10T18:38:01.678Z,97795.28
2023-04-10T18:40:29.978Z,97861.97
2023-04-10T18:42:59.762Z,97855.97
2023-04-10T18:45:29.416Z,97842.25
2023-04-10T18:47:57.684Z,97831.84
2023-04-10T18:50:26.000Z,97833.44
2023-04-10T18:52:54.195Z,97857.72
2023-04-10T18:55:22.607Z,97854.16
2023-04-10T18:57:50.713Z,97863.00
2023-04-10T19:00:19.201Z,97837.13
2023-04-10T19:02:48.971Z,97838.16
2023-04-10T19:05:17.230Z,97845.25
2023-04-10T19:07:56.789Z,97864.00
2023-04-10T19:10:29.430Z,97870.34
2023-04-10T19:12:57.586Z,97873.03
2023-04-10T19:15:26.180Z,97871.28
2023-04-10T19:17:56.321Z,97854.13
2023-04-10T19:20:50.074Z,97862.25
2023-04-10T19:23:13.057Z,97876.38
2023-04-10T19:25:41.358Z,97814.50
2023-04-10T19:28:09.571Z,97879.03
2023-04-10T19:30:37.761Z,97867.03
2023-04-10T19:33:07.405Z,97861.19
2023-04-10T19:35:35.559Z,97860.22
2023-04-10T19:38:03.809Z,97884.56
2023-04-10T19:40:32.307Z,97878.38
2023-04-10T19:43:01.970Z,97889.78
2023-04-10T19:45:32.514Z,97874.16
2023-04-10T19:48:01.277Z,97868.84
2023-04-10T19:50:31.669Z,97816.22
2023-04-10T19:52:59.865Z,97866.06
2023-04-10T19:55:28.174Z,97849.09
2023-04-10T19:57:56.426Z,97864.75
2023-04-10T20:00:24.713Z,97846.81
2023-04-10T20:02:53.091Z,97868.50
2023-04-10T20:05:21.497Z,97868.50
2023-04-10T20:07:51.299Z,97847.78
2023-04-10T20:10:19.462Z,97861.50
2023-04-10T20:12:47.608Z,97858.03
2023-04-10T20:15:15.714Z,97846.00
2023-04-10T20:17:43.869Z,97857.38
2023-04-10T20:20:13.660Z,97834.84
2023-04-10T20:22:41.854Z,97859.94
2023-04-10T20:25:11.661Z,97861.81
2023-04-10T20:27:39.874Z,97863.66
2023-04-10T20:30:09.671Z,97857.81
2023-04-10T20:32:37.961Z,97856.94
2023-04-10T20:35:06.887Z,97861.38
2023-04-10T20:37:35.098Z,97854.53
2023-04-10T20:40:03.294Z,97857.22
2023-04-10T20:42:32.981Z,97857.28
2023-04-10T20:45:01.093Z,97861.63
2023-04-10T20:47:30.144Z,97867.66
2023-04-10T20:49:58.346Z,97855.78
2023-04-10T20:52:26.450Z,97854.84
2023-04-10T20:54:54.613Z,97848.75
2023-04-10T20:57:23.845Z,97845.59
2023-04-10T20:59:53.560Z,97849.94
2023-04-10T21:02:21.874Z,97824.94
2023-04-10T21:04:51.455Z,97857.66
2023-04-10T21:07:19.682Z,97842.13
2023-04-10T21:09:47.847Z,97855.03
2023-04-10T21:12:15.965Z,97851.78
2023-04-10T21:14:44.149Z,97854.19
2023-04-10T21:17:13.850Z,97853.56
2023-04-10T21:19:42.030Z,97835.47
2023-04-10T21:22:11.406Z,97857.97
2023-04-10T21:24:39.586Z,97857.06
2023-04-10T21:27:08.125Z,97840.81
2023-04-10T21:29:36.283Z,97862.50
2023-04-10T21:32:04.414Z,97860.69
2023-04-10T21:34:33.997Z,97859.06
2023-04-10T21:37:02.140Z,97904.22
2023-04-10T21:39:30.673Z,97816.91
2023-04-10T21:41:58.791Z,97829.75
2023-04-10T21:44:27.014Z,97845.31
2023-04-10T21:46:55.191Z,97848.09
2023-04-10T21:49:23.369Z,97829.91
2023-04-10T21:51:52.990Z,97843.75
2023-04-10T21:54:21.074Z,97818.72
2023-04-10T21:56:49.304Z,97824.00
2023-04-10T21:59:17.498Z,97828.19
2023-04-10T22:01:45.750Z,97826.38
2023-04-10T22:04:14.253Z,97825.44
2023-04-10T22:06:42.507Z,97829.78
2023-04-10T22:09:12.068Z,97823.00
2023-04-10T22:11:40.520Z,97824.00
2023-04-10T22:14:17.283Z,97823.09
2023-04-10T22:16:47.051Z,97824.91
2023-04-10T22:19:15.227Z,97823.09
2023-04-10T22:21:43.372Z,97821.38
2023-04-10T22:24:12.983Z,97809.41
2023-04-10T22:26:42.224Z,97789.53
2023-04-10T22:29:10.554Z,97805.88
2023-04-10T22:31:38.772Z,97807.63
2023-04-10T22:34:07.010Z,97823.31
2023-04-10T22:36:35.307Z,97799.94
2023-04-10T22:39:03.749Z,97809.53
2023-04-10T22:41:33.535Z,97727.56
2023-04-10T22:44:01.716Z,97812.84
2023-04-10T22:46:29.863Z,97806.78
2023-04-10T22:48:58.008Z,97816.38
2023-04-10T22:51:26.858Z,97812.03
2023-04-10T22:53:55.147Z,97810.25
2023-04-10T22:56:26.723Z,97791.34
2023-04-10T22:58:56.813Z,97773.44
2023-04-10T23:01:25.195Z,97813.16
2023-04-10T23:03:54.044Z,97816.72
2023-04-10T23:06:22.263Z,97702.88
2023-04-10T23:08:50.376Z,97807.28
2023-04-10T23:11:18.512Z,97806.47
2023-04-10T23:13:46.774Z,97803.91
2023-04-10T23:16:16.330Z,97797.84
2023-04-10T23:18:44.594Z,97803.13
2023-04-10T23:21:12.739Z,97797.06
2023-04-10T23:23:40.903Z,97795.38
2023-04-10T23:26:11.513Z,97794.50
2023-04-10T23:28:39.936Z,97789.28
2023-04-10T23:31:09.174Z,97793.66
2023-04-10T23:33:38.786Z,97798.06
2023-04-10T23:36:07.610Z,97782.44
2023-04-10T23:38:35.834Z,97776.38
2023-04-10T23:41:04.188Z,97777.16
2023-04-10T23:43:32.373Z,97772.91
2023-04-10T23:46:00.677Z,97753.91
2023-04-10T23:48:28.801Z,97772.09
2023-04-10T23:51:06.349Z,97751.31
2023-04-10T23:53:34.962Z,97768.53
2023-04-10T23:56:03.369Z,97781.53
2023-04-10T23:58:31.558Z,97747.00
